createdAt,value
2022-08-25T00:00:47.705Z,20.86
2022-08-25T00:01:51.159Z,20.85
2022-08-25T00:02:55.931Z,20.84
2022-08-25T00:03:58.369Z,20.82
2022-08-25T00:04:59.837Z,20.82
2022-08-25T00:06:01.265Z,20.80
2022-08-25T00:07:04.759Z,20.79
2022-08-25T00:08:06.864Z,20.77
2022-08-25T00:09:09.125Z,20.73
2022-08-25T00:10:10.641Z,20.71
2022-08-25T00:11:14.470Z,20.70
2022-08-25T00:12:15.989Z,20.68
2022-08-25T00:13:17.414Z,20.67
2022-08-25T00:14:24.081Z,20.64
2022-08-25T00:15:25.526Z,20.66
2022-08-25T00:16:28.241Z,20.66
2022-08-25T00:17:29.619Z,20.67
2022-08-25T00:18:31.057Z,20.66
2022-08-25T00:19:33.895Z,20.64
2022-08-25T00:20:35.297Z,20.63
2022-08-25T00:21:37.330Z,20.61
2022-08-25T00:22:38.743Z,20.61
2022-08-25T00:23:40.411Z,20.60
2022-08-25T00:24:41.924Z,20.59
2022-08-25T00:25:43.284Z,20.58
2022-08-25T00:26:45.734Z,20.57
2022-08-25T00:27:47.176Z,20.58
2022-08-25T00:28:48.587Z,20.56
2022-08-25T00:29:49.935Z,20.54
2022-08-25T00:30:51.448Z,20.54
2022-08-25T00:31:53.249Z,20.52
2022-08-25T00:32:57.409Z,20.48
2022-08-25T00:33:59.054Z,20.48
2022-08-25T00:35:00.497Z,20.46
2022-08-25T00:36:02.009Z,20.45
2022-08-25T00:37:04.380Z,20.44
2022-08-25T00:38:05.873Z,20.45
2022-08-25T00:39:08.537Z,20.43
2022-08-25T00:40:10.302Z,20.43
2022-08-25T00:41:13.911Z,20.40
2022-08-25T00:42:16.262Z,20.39
2022-08-25T00:43:18.192Z,20.38
2022-08-25T00:44:20.198Z,20.38
2022-08-25T00:45:22.216Z,20.37
2022-08-25T00:46:25.409Z,20.35
2022-08-25T00:47:26.864Z,20.35
2022-08-25T00:48:28.257Z,20.36
2022-08-25T00:49:29.669Z,20.35
2022-08-25T00:50:33.133Z,20.34
2022-08-25T00:51:38.906Z,20.32
2022-08-25T00:52:45.251Z,20.30
2022-08-25T00:53:47.458Z,20.30
2022-08-25T00:55:01.896Z,20.28
2022-08-25T00:56:06.090Z,20.26
2022-08-25T00:57:08.886Z,20.22
2022-08-25T00:58:16.235Z,20.19
2022-08-25T00:59:21.461Z,20.17
2022-08-25T01:00:31.260Z,20.14
2022-08-25T01:01:32.709Z,20.12
2022-08-25T01:02:34.180Z,20.10
2022-08-25T01:03:35.629Z,20.10
2022-08-25T01:04:37.334Z,20.08
2022-08-25T01:05:39.701Z,20.07
2022-08-25T01:06:42.641Z,20.06
2022-08-25T01:07:44.725Z,20.04
2022-08-25T01:08:46.576Z,20.02
2022-08-25T01:09:49.946Z,20.01
2022-08-25T01:10:51.390Z,20.01
2022-08-25T01:11:52.823Z,20.00
2022-08-25T01:12:58.249Z,19.98
2022-08-25T01:14:01.297Z,19.96
2022-08-25T01:15:05.973Z,19.93
2022-08-25T01:16:07.592Z,19.94
2022-08-25T01:17:09.051Z,19.92
2022-08-25T01:18:10.547Z,19.91
2022-08-25T01:19:15.324Z,19.90
2022-08-25T01:20:18.756Z,19.88
2022-08-25T01:21:22.046Z,19.86
2022-08-25T01:22:23.423Z,19.84
2022-08-25T01:23:25.227Z,19.84
2022-08-25T01:24:35.124Z,19.81
2022-08-25T01:25:51.729Z,19.75
2022-08-25T01:26:53.265Z,19.78
2022-08-25T01:27:55.313Z,19.76
2022-08-25T01:28:57.221Z,19.75
2022-08-25T01:29:58.841Z,19.74
2022-08-25T01:31:00.287Z,19.73
2022-08-25T01:32:04.143Z,19.72
2022-08-25T01:33:06.326Z,19.69
2022-08-25T01:34:08.813Z,19.69
2022-08-25T01:35:10.176Z,19.69
2022-08-25T01:36:11.639Z,19.67
2022-08-25T01:37:14.009Z,19.67
2022-08-25T01:38:15.595Z,19.66
2022-08-25T01:39:17.015Z,19.66
2022-08-25T01:40:18.462Z,19.63
2022-08-25T01:41:25.639Z,19.63
2022-08-25T01:42:37.891Z,19.62
2022-08-25T01:43:39.316Z,19.59
2022-08-25T01:44:42.691Z,19.60
2022-08-25T01:45:47.470Z,19.59
2022-08-25T01:46:48.986Z,19.57
2022-08-25T01:47:50.392Z,19.56
2022-08-25T01:48:51.831Z,19.58
2022-08-25T01:49:53.568Z,19.58
2022-08-25T01:50:55.005Z,19.58
2022-08-25T01:51:59.932Z,19.58
2022-08-25T01:53:13.186Z,19.57
2022-08-25T01:54:15.138Z,19.55
2022-08-25T01:55:16.582Z,19.56
2022-08-25T01:56:18.045Z,19.56
2022-08-25T01:57:20.052Z,19.55
2022-08-25T01:58:23.019Z,19.54
2022-08-25T01:59:24.665Z,19.55
2022-08-25T02:00:26.090Z,19.53
2022-08-25T02:01:27.655Z,19.53
2022-08-25T02:02:29.147Z,19.53
2022-08-25T02:03:33.360Z,19.51
2022-08-25T02:04:35.127Z,19.52
2022-08-25T02:05:36.517Z,19.52
2022-08-25T02:06:38.701Z,19.53
2022-08-25T02:07:43.645Z,19.50
2022-08-25T02:08:45.057Z,19.48
2022-08-25T02:09:46.456Z,19.49
2022-08-25T02:10:47.881Z,19.47
2022-08-25T02:11:49.254Z,19.47
2022-08-25T02:12:50.829Z,19.47
2022-08-25T02:13:55.823Z,19.45
2022-08-25T02:14:57.353Z,19.45
2022-08-25T02:16:00.806Z,19.45
2022-08-25T02:17:02.787Z,19.46
2022-08-25T02:18:04.379Z,19.45
2022-08-25T02:19:07.358Z,19.45
2022-08-25T02:20:08.949Z,19.42
2022-08-25T02:21:10.322Z,19.45
2022-08-25T02:22:11.731Z,19.43
2022-08-25T02:23:13.482Z,19.42
2022-08-25T02:24:15.053Z,19.41
2022-08-25T02:25:16.734Z,19.41
2022-08-25T02:26:18.198Z,19.41
2022-08-25T02:27:19.888Z,19.40
2022-08-25T02:28:21.269Z,19.40
2022-08-25T02:29:22.696Z,19.42
2022-08-25T02:30:24.513Z,19.43
2022-08-25T02:31:26.261Z,19.42
2022-08-25T02:32:27.728Z,19.40
2022-08-25T02:33:29.218Z,19.39
2022-08-25T02:34:30.676Z,19.39
2022-08-25T02:35:32.088Z,19.37
2022-08-25T02:36:33.647Z,19.36
2022-08-25T02:37:35.701Z,19.35
2022-08-25T02:38:37.722Z,19.34
2022-08-25T02:39:39.154Z,19.33
2022-08-25T02:40:40.616Z,19.34
2022-08-25T02:41:42.443Z,19.34
2022-08-25T02:42:44.232Z,19.32
2022-08-25T02:43:46.226Z,19.31
2022-08-25T02:44:47.614Z,19.30
2022-08-25T02:45:49.070Z,19.28
2022-08-25T02:46:50.495Z,19.26
2022-08-25T02:47:51.945Z,19.25
2022-08-25T02:48:53.624Z,19.20
2022-08-25T02:49:55.079Z,19.19
2022-08-25T02:50:59.389Z,19.15
2022-08-25T02:52:00.802Z,19.09
2022-08-25T02:53:02.807Z,19.09
2022-08-25T02:54:04.950Z,19.10
2022-08-25T02:55:07.696Z,19.08
2022-08-25T02:56:10.270Z,19.06
2022-08-25T02:57:11.662Z,19.06
2022-08-25T02:58:13.841Z,19.05
2022-08-25T02:59:15.804Z,19.04
2022-08-25T03:00:17.461Z,19.04
2022-08-25T03:01:20.298Z,19.05
2022-08-25T03:02:23.772Z,19.04
2022-08-25T03:03:25.238Z,19.03
2022-08-25T03:04:26.766Z,19.03
2022-08-25T03:05:28.360Z,19.02
2022-08-25T03:06:29.802Z,19.02
2022-08-25T03:07:31.286Z,19.02
2022-08-25T03:08:37.247Z,19.02
2022-08-25T03:09:38.687Z,19.00
2022-08-25T03:10:40.181Z,18.99
2022-08-25T03:11:41.597Z,18.99
2022-08-25T03:12:42.984Z,18.97
2022-08-25T03:13:44.970Z,18.95
2022-08-25T03:14:46.400Z,18.93
2022-08-25T03:15:48.024Z,18.93
2022-08-25T03:16:50.806Z,18.92
2022-08-25T03:17:52.290Z,18.92
2022-08-25T03:18:53.710Z,18.89
2022-08-25T03:19:56.683Z,18.89
2022-08-25T03:20:58.275Z,18.87
2022-08-25T03:21:59.770Z,18.88
2022-08-25T03:23:02.200Z,18.88
2022-08-25T03:24:04.139Z,18.86
2022-08-25T03:25:05.884Z,18.86
2022-08-25T03:26:07.926Z,18.85
2022-08-25T03:27:09.286Z,18.85
2022-08-25T03:28:13.210Z,18.84
2022-08-25T03:29:14.606Z,18.82
2022-08-25T03:30:16.001Z,18.82
2022-08-25T03:31:17.499Z,18.81
2022-08-25T03:32:18.913Z,18.80
2022-08-25T03:33:20.287Z,18.79
2022-08-25T03:34:22.577Z,18.77
2022-08-25T03:35:24.052Z,18.77
2022-08-25T03:36:25.614Z,18.77
2022-08-25T03:37:27.330Z,18.78
2022-08-25T03:38:28.711Z,18.76
2022-08-25T03:39:30.062Z,18.75
2022-08-25T03:40:31.790Z,18.75
2022-08-25T03:41:33.260Z,18.73
2022-08-25T03:42:35.181Z,18.74
2022-08-25T03:43:36.638Z,18.74
2022-08-25T03:44:37.999Z,18.73
2022-08-25T03:45:40.563Z,18.73
2022-08-25T03:46:49.469Z,18.73
2022-08-25T03:47:51.906Z,18.74
2022-08-25T03:48:53.765Z,18.73
2022-08-25T03:49:55.231Z,18.73
2022-08-25T03:50:56.647Z,18.74
2022-08-25T03:51:58.093Z,18.74
2022-08-25T03:52:59.572Z,18.73
2022-08-25T03:54:01.656Z,18.73
2022-08-25T03:55:04.104Z,18.71
2022-08-25T03:56:05.681Z,18.72
2022-08-25T03:57:07.065Z,18.69
2022-08-25T03:58:08.687Z,18.70
2022-08-25T03:59:10.136Z,18.69
2022-08-25T04:00:11.963Z,18.68
2022-08-25T04:01:13.885Z,18.67
2022-08-25T04:02:16.973Z,18.68
2022-08-25T04:03:18.377Z,18.67
2022-08-25T04:04:19.773Z,18.67
2022-08-25T04:05:21.192Z,18.67
2022-08-25T04:06:22.626Z,18.66
2022-08-25T04:07:24.061Z,18.66
2022-08-25T04:08:25.452Z,18.64
2022-08-25T04:09:26.808Z,18.65
2022-08-25T04:10:31.894Z,18.65
2022-08-25T04:11:33.514Z,18.65
2022-08-25T04:12:34.992Z,18.64
2022-08-25T04:13:36.581Z,18.64
2022-08-25T04:14:37.977Z,18.63
2022-08-25T04:15:42.285Z,18.64
2022-08-25T04:16:44.105Z,18.63
2022-08-25T04:17:45.685Z,18.62
2022-08-25T04:18:48.449Z,18.62
2022-08-25T04:19:49.864Z,18.62
2022-08-25T04:20:51.261Z,18.60
2022-08-25T04:21:56.540Z,18.59
2022-08-25T04:22:58.253Z,18.55
2022-08-25T04:23:59.639Z,18.51
2022-08-25T04:25:01.089Z,18.51
2022-08-25T04:26:02.751Z,18.50
2022-08-25T04:27:04.191Z,18.49
2022-08-25T04:28:05.780Z,18.48
2022-08-25T04:29:08.263Z,18.47
2022-08-25T04:30:10.010Z,18.47
2022-08-25T04:31:12.288Z,18.45
2022-08-25T04:32:13.861Z,18.45
2022-08-25T04:33:15.295Z,18.43
2022-08-25T04:34:30.434Z,18.42
2022-08-25T04:35:32.736Z,18.42
2022-08-25T04:36:34.545Z,18.43
2022-08-25T04:37:36.269Z,18.45
2022-08-25T04:38:38.316Z,18.44
2022-08-25T04:39:39.789Z,18.44
2022-08-25T04:40:41.187Z,18.43
2022-08-25T04:41:42.609Z,18.43
2022-08-25T04:42:44.062Z,18.45
2022-08-25T04:43:48.774Z,18.44
2022-08-25T04:44:50.223Z,18.44
2022-08-25T04:45:51.745Z,18.44
2022-08-25T04:46:53.312Z,18.46
2022-08-25T04:48:05.419Z,18.48
2022-08-25T04:49:06.993Z,18.48
2022-08-25T04:50:08.854Z,18.50
2022-08-25T04:51:12.089Z,18.52
2022-08-25T04:52:14.427Z,18.55
2022-08-25T04:53:16.361Z,18.57
2022-08-25T04:54:18.335Z,18.58
2022-08-25T04:55:19.758Z,18.60
2022-08-25T04:56:22.688Z,18.63
2022-08-25T04:57:24.054Z,18.64
2022-08-25T04:58:25.552Z,18.67
2022-08-25T04:59:29.335Z,18.70
2022-08-25T05:00:34.038Z,18.73
2022-08-25T05:01:35.578Z,18.76
2022-08-25T05:02:37.585Z,18.81
2022-08-25T05:03:39.002Z,18.83
2022-08-25T05:04:40.403Z,18.86
2022-08-25T05:05:41.983Z,18.89
2022-08-25T05:06:43.388Z,18.93
2022-08-25T05:07:46.427Z,18.96
2022-08-25T05:08:47.946Z,18.98
2022-08-25T05:09:49.299Z,19.02
2022-08-25T05:10:50.705Z,19.04
2022-08-25T05:11:53.592Z,19.07
2022-08-25T05:12:55.098Z,19.10
2022-08-25T05:13:57.229Z,19.11
2022-08-25T05:14:59.093Z,19.13
2022-08-25T05:16:00.712Z,19.13
2022-08-25T05:17:02.498Z,19.14
2022-08-25T05:18:04.060Z,19.15
2022-08-25T05:19:05.765Z,19.16
2022-08-25T05:20:07.419Z,19.16
2022-08-25T05:21:10.669Z,19.17
2022-08-25T05:22:12.140Z,19.19
2022-08-25T05:23:13.633Z,19.24
2022-08-25T05:24:15.247Z,19.27
2022-08-25T05:25:18.332Z,19.34
2022-08-25T05:26:21.093Z,19.49
2022-08-25T05:27:22.558Z,19.65
2022-08-25T05:28:24.002Z,19.78
2022-08-25T05:29:25.720Z,19.84
2022-08-25T05:30:27.196Z,19.91
2022-08-25T05:31:28.725Z,19.94
2022-08-25T05:32:30.122Z,19.98
2022-08-25T05:33:32.563Z,20.02
2022-08-25T05:34:35.574Z,20.08
2022-08-25T05:35:37.643Z,20.12
2022-08-25T05:36:39.074Z,20.14
2022-08-25T05:37:40.484Z,20.13
2022-08-25T05:38:42.097Z,20.15
2022-08-25T05:39:43.512Z,20.16
2022-08-25T05:40:45.157Z,20.25
2022-08-25T05:41:46.677Z,20.25
2022-08-25T05:42:48.127Z,20.28
2022-08-25T05:43:49.690Z,20.32
2022-08-25T05:44:51.290Z,20.36
2022-08-25T05:45:56.672Z,20.39
2022-08-25T05:46:58.141Z,20.39
2022-08-25T05:47:59.659Z,20.39
2022-08-25T05:49:01.114Z,20.36
2022-08-25T05:50:02.615Z,20.36
2022-08-25T05:51:05.449Z,20.34
2022-08-25T05:52:06.804Z,20.34
2022-08-25T05:53:08.300Z,20.41
2022-08-25T05:54:09.805Z,20.42
2022-08-25T05:55:11.352Z,20.40
2022-08-25T05:56:13.615Z,20.38
2022-08-25T05:57:15.094Z,20.41
2022-08-25T05:58:16.704Z,20.38
2022-08-25T05:59:18.123Z,20.40
2022-08-25T06:00:19.627Z,20.49
2022-08-25T06:01:28.690Z,20.48
2022-08-25T06:02:30.094Z,20.45
2022-08-25T06:03:31.568Z,20.45
2022-08-25T06:04:33.041Z,20.49
2022-08-25T06:05:34.583Z,20.43
2022-08-25T06:06:36.117Z,20.43
2022-08-25T06:07:37.567Z,20.44
2022-08-25T06:08:39.116Z,20.46
2022-08-25T06:09:42.036Z,20.50
2022-08-25T06:10:43.518Z,20.52
2022-08-25T06:11:44.944Z,20.58
2022-08-25T06:12:46.772Z,20.60
2022-08-25T06:13:48.488Z,20.60
2022-08-25T06:14:50.090Z,20.66
2022-08-25T06:15:56.940Z,20.66
2022-08-25T06:16:58.394Z,20.67
2022-08-25T06:18:01.770Z,20.70
2022-08-25T06:19:03.484Z,20.77
2022-08-25T06:20:05.170Z,20.82
2022-08-25T06:21:12.690Z,20.87
2022-08-25T06:22:14.145Z,20.88
2022-08-25T06:23:15.930Z,20.95
2022-08-25T06:24:17.295Z,21.00
2022-08-25T06:25:20.025Z,21.05
2022-08-25T06:26:21.733Z,21.13
2022-08-25T06:27:23.128Z,21.19
2022-08-25T06:28:24.529Z,21.22
2022-08-25T06:29:26.402Z,21.28
2022-08-25T06:30:28.638Z,21.33
2022-08-25T06:31:30.761Z,21.48
2022-08-25T06:32:32.667Z,21.70
2022-08-25T06:33:34.297Z,21.97
2022-08-25T06:34:35.858Z,22.25
2022-08-25T06:35:37.565Z,22.56
2022-08-25T06:36:39.622Z,22.83
2022-08-25T06:37:41.028Z,23.18
2022-08-25T06:38:42.766Z,23.61
2022-08-25T06:39:44.214Z,24.30
2022-08-25T06:40:47.305Z,25.19
2022-08-25T06:41:55.716Z,26.24
2022-08-25T06:43:00.313Z,27.25
2022-08-25T06:44:05.332Z,28.10
2022-08-25T06:45:07.742Z,28.95
2022-08-25T06:46:09.170Z,29.60
2022-08-25T06:47:10.864Z,30.27
2022-08-25T06:48:12.289Z,30.78
2022-08-25T06:49:13.881Z,31.34
2022-08-25T06:50:15.405Z,31.77
2022-08-25T06:51:18.558Z,32.21
2022-08-25T06:52:19.961Z,32.36
2022-08-25T06:53:21.385Z,32.60
2022-08-25T06:54:22.850Z,32.78
2022-08-25T06:55:24.215Z,32.73
2022-08-25T06:56:25.642Z,32.95
2022-08-25T06:57:28.090Z,32.54
2022-08-25T06:58:29.667Z,32.00
2022-08-25T06:59:32.185Z,31.21
2022-08-25T07:00:34.126Z,30.51
2022-08-25T07:01:35.713Z,29.72
2022-08-25T07:02:37.317Z,29.02
2022-08-25T07:03:39.183Z,28.54
2022-08-25T07:04:40.614Z,28.14
2022-08-25T07:05:43.879Z,27.70
2022-08-25T07:06:45.634Z,27.48
2022-08-25T07:07:47.136Z,27.33
2022-08-25T07:08:48.564Z,27.18
2022-08-25T07:09:50.014Z,26.90
2022-08-25T07:10:51.431Z,26.71
2022-08-25T07:11:52.870Z,26.49
2022-08-25T07:12:54.353Z,26.42
2022-08-25T07:13:55.829Z,26.28
2022-08-25T07:15:17.179Z,26.11
2022-08-25T07:16:19.939Z,26.02
2022-08-25T07:17:22.237Z,25.98
2022-08-25T07:18:24.727Z,25.90
2022-08-25T07:19:26.188Z,25.80
2022-08-25T07:20:27.794Z,25.72
2022-08-25T07:21:33.674Z,25.76
2022-08-25T07:22:37.138Z,25.68
2022-08-25T07:23:38.952Z,25.64
2022-08-25T07:24:40.614Z,25.63
2022-08-25T07:25:42.032Z,25.47
2022-08-25T07:26:43.845Z,25.44
2022-08-25T07:27:45.678Z,25.44
2022-08-25T07:28:47.614Z,25.33
2022-08-25T07:29:49.141Z,25.19
2022-08-25T07:30:51.605Z,25.17
2022-08-25T07:31:53.433Z,25.16
2022-08-25T07:34:16.734Z,25.23
2022-08-25T07:35:18.938Z,25.23
2022-08-25T07:36:20.985Z,25.09
2022-08-25T07:37:38.271Z,24.98
2022-08-25T07:38:45.301Z,24.96
2022-08-25T07:39:47.317Z,25.00
2022-08-25T07:40:53.309Z,24.95
2022-08-25T07:41:54.901Z,24.95
2022-08-25T07:42:57.388Z,24.99
2022-08-25T07:43:58.796Z,25.05
2022-08-25T07:45:00.215Z,25.08
2022-08-25T07:46:06.171Z,25.03
2022-08-25T07:47:07.579Z,24.95
2022-08-25T07:48:10.918Z,24.83
2022-08-25T07:49:16.857Z,24.90
2022-08-25T07:50:18.813Z,25.01
2022-08-25T07:51:20.254Z,25.07
2022-08-25T07:52:21.803Z,25.14
2022-08-25T07:53:23.207Z,25.14
2022-08-25T07:54:24.805Z,25.33
2022-08-25T07:55:36.417Z,25.42
2022-08-25T07:56:38.375Z,25.40
2022-08-25T07:57:40.490Z,25.40
2022-08-25T07:58:42.845Z,25.32
2022-08-25T07:59:45.686Z,25.27
2022-08-25T08:00:48.016Z,25.25
2022-08-25T08:01:49.530Z,25.21
2022-08-25T08:02:50.983Z,25.16
2022-08-25T08:03:52.581Z,25.13
2022-08-25T08:04:54.690Z,25.12
2022-08-25T08:05:56.189Z,25.03
2022-08-25T08:06:57.574Z,25.06
2022-08-25T08:07:59.076Z,25.14
2022-08-25T08:09:01.594Z,25.19
2022-08-25T08:10:32.804Z,25.24
2022-08-25T08:11:27.159Z,25.19
2022-08-25T08:12:28.733Z,25.16
2022-08-25T08:13:30.206Z,25.21
2022-08-25T08:14:31.613Z,25.27
2022-08-25T08:15:33.096Z,25.33
2022-08-25T08:16:34.614Z,25.34
2022-08-25T08:17:36.090Z,25.32
2022-08-25T08:18:38.147Z,25.28
2022-08-25T08:19:44.935Z,25.27
2022-08-25T08:20:47.806Z,25.23
2022-08-25T08:21:49.202Z,25.21
2022-08-25T08:22:52.545Z,25.18
2022-08-25T08:23:58.582Z,25.18
2022-08-25T08:25:01.490Z,25.21
2022-08-25T08:26:02.899Z,25.27
2022-08-25T08:27:06.638Z,25.28
2022-08-25T08:28:08.390Z,25.31
2022-08-25T08:29:12.484Z,25.28
2022-08-25T08:30:14.198Z,25.35
2022-08-25T08:31:15.642Z,25.36
2022-08-25T08:32:17.076Z,25.39
2022-08-25T08:33:18.478Z,25.40
2022-08-25T08:34:24.800Z,25.40
2022-08-25T08:35:26.549Z,25.43
2022-08-25T08:36:28.248Z,25.41
2022-08-25T08:37:31.661Z,25.38
2022-08-25T08:38:33.853Z,25.36
2022-08-25T08:39:37.033Z,25.39
2022-08-25T08:40:54.911Z,25.38
2022-08-25T08:42:16.881Z,25.41
2022-08-25T08:43:19.151Z,25.27
2022-08-25T08:44:23.553Z,25.29
2022-08-25T08:45:29.889Z,25.28
2022-08-25T08:46:39.565Z,25.30
2022-08-25T08:47:47.104Z,25.37
2022-08-25T08:48:48.992Z,25.47
2022-08-25T08:50:04.206Z,25.51
2022-08-25T08:51:23.088Z,25.52
2022-08-25T08:52:33.134Z,25.53
2022-08-25T08:53:54.789Z,25.56
2022-08-25T08:55:01.227Z,25.65
2022-08-25T08:56:11.787Z,25.67
2022-08-25T08:57:19.684Z,25.61
2022-08-25T08:58:26.245Z,25.61
2022-08-25T08:59:31.065Z,25.60
2022-08-25T09:00:33.066Z,25.61
2022-08-25T09:01:39.106Z,25.66
2022-08-25T09:02:52.039Z,25.68
2022-08-25T09:03:59.649Z,25.77
2022-08-25T09:05:02.942Z,25.82
2022-08-25T09:06:17.552Z,25.78
2022-08-25T09:07:21.488Z,25.74
2022-08-25T09:08:22.903Z,25.79
2022-08-25T09:09:35.702Z,25.75
2022-08-25T09:10:48.195Z,25.76
2022-08-25T09:11:55.443Z,25.81
2022-08-25T09:13:12.615Z,25.91
2022-08-25T09:14:19.430Z,25.87
2022-08-25T09:15:41.323Z,25.93
2022-08-25T09:16:52.109Z,25.92
2022-08-25T09:17:59.397Z,25.98
2022-08-25T09:19:21.266Z,26.07
2022-08-25T09:20:24.998Z,26.19
2022-08-25T09:21:44.840Z,26.22
2022-08-25T09:23:13.168Z,26.28
2022-08-25T09:24:17.712Z,26.28
2022-08-25T09:25:39.622Z,26.32
2022-08-25T09:26:53.427Z,26.40
2022-08-25T09:27:57.717Z,26.39
2022-08-25T09:29:16.226Z,26.49
2022-08-25T09:30:21.026Z,26.48
2022-08-25T09:31:30.125Z,26.46
2022-08-25T09:32:34.227Z,26.44
2022-08-25T09:33:37.019Z,26.50
2022-08-25T09:34:38.453Z,26.54
2022-08-25T09:35:40.594Z,26.58
2022-08-25T09:36:42.076Z,26.68
2022-08-25T09:37:43.551Z,26.71
2022-08-25T09:38:45.100Z,26.79
2022-08-25T09:39:46.591Z,26.86
2022-08-25T09:40:51.133Z,26.85
2022-08-25T09:41:54.776Z,26.82
2022-08-25T09:42:58.678Z,26.85
2022-08-25T09:44:00.215Z,26.85
2022-08-25T09:45:01.579Z,26.83
2022-08-25T09:46:09.241Z,26.83
2022-08-25T09:47:28.644Z,26.78
2022-08-25T09:48:33.145Z,26.79
2022-08-25T09:49:41.661Z,26.77
2022-08-25T09:50:46.657Z,26.78
2022-08-25T09:51:48.339Z,26.79
2022-08-25T09:52:54.191Z,26.88
2022-08-25T09:53:58.760Z,26.90
2022-08-25T09:55:05.971Z,27.03
2022-08-25T09:56:09.936Z,27.04
2022-08-25T09:57:31.790Z,27.09
2022-08-25T09:58:33.565Z,27.07
2022-08-25T09:59:36.169Z,27.02
2022-08-25T10:00:37.656Z,27.07
2022-08-25T10:01:47.490Z,27.12
2022-08-25T10:03:10.219Z,27.22
2022-08-25T10:04:19.014Z,27.26
2022-08-25T10:05:23.786Z,27.33
2022-08-25T10:06:27.174Z,27.36
2022-08-25T10:07:28.542Z,27.47
2022-08-25T10:08:39.555Z,27.49
2022-08-25T10:09:42.524Z,27.37
2022-08-25T10:10:45.632Z,27.35
2022-08-25T10:11:47.445Z,27.38
2022-08-25T10:12:51.342Z,27.51
2022-08-25T10:14:01.100Z,27.57
2022-08-25T10:15:29.661Z,27.51
2022-08-25T10:16:36.019Z,27.59
2022-08-25T10:17:38.052Z,27.77
2022-08-25T10:18:40.586Z,27.90
2022-08-25T10:19:44.301Z,27.87
2022-08-25T10:21:00.241Z,27.78
2022-08-25T10:22:20.190Z,27.74
2022-08-25T10:23:26.844Z,27.77
2022-08-25T10:24:28.270Z,27.72
2022-08-25T10:25:31.056Z,27.74
2022-08-25T10:26:41.577Z,27.80
2022-08-25T10:27:45.721Z,27.92
2022-08-25T10:28:49.861Z,27.97
2022-08-25T10:30:00.481Z,27.84
2022-08-25T10:31:10.138Z,27.85
2022-08-25T10:32:18.715Z,27.86
2022-08-25T10:33:32.157Z,27.83
2022-08-25T10:34:51.629Z,27.74
2022-08-25T10:36:05.049Z,27.77
2022-08-25T10:37:23.708Z,27.79
2022-08-25T10:38:36.136Z,27.93
2022-08-25T10:39:42.423Z,27.93
2022-08-25T10:41:10.256Z,28.04
2022-08-25T10:42:17.702Z,28.17
2022-08-25T10:43:23.816Z,28.21
2022-08-25T10:44:50.536Z,28.17
2022-08-25T10:46:07.027Z,28.18
2022-08-25T10:47:11.376Z,28.16
2022-08-25T10:48:20.840Z,28.20
2022-08-25T10:49:29.653Z,28.28
2022-08-25T10:50:45.303Z,28.31
2022-08-25T10:52:16.259Z,28.38
2022-08-25T10:53:23.579Z,28.53
2022-08-25T10:54:24.994Z,28.54
2022-08-25T10:55:34.204Z,28.63
2022-08-25T10:56:45.389Z,28.61
2022-08-25T10:57:46.767Z,28.75
2022-08-25T10:59:09.268Z,28.97
2022-08-25T11:00:18.711Z,29.16
2022-08-25T11:01:43.624Z,29.26
2022-08-25T11:03:01.476Z,29.29
2022-08-25T11:04:06.494Z,29.38
2022-08-25T11:05:13.844Z,29.37
2022-08-25T11:06:24.865Z,29.40
2022-08-25T11:07:31.396Z,29.43
2022-08-25T11:08:36.411Z,29.39
2022-08-25T11:09:40.168Z,29.43
2022-08-25T11:10:44.590Z,29.64
2022-08-25T11:11:45.966Z,29.61
2022-08-25T11:12:54.230Z,29.65
2022-08-25T11:14:00.154Z,29.70
2022-08-25T11:15:10.231Z,29.72
2022-08-25T11:16:17.490Z,29.71
2022-08-25T11:17:24.713Z,29.62
2022-08-25T11:18:29.205Z,29.67
2022-08-25T11:19:30.583Z,29.67
2022-08-25T11:20:41.996Z,29.68
2022-08-25T11:21:52.233Z,29.68
2022-08-25T11:22:59.650Z,29.70
2022-08-25T11:24:19.404Z,29.62
2022-08-25T11:25:26.122Z,29.44
2022-08-25T11:26:32.878Z,29.38
2022-08-25T11:27:42.966Z,29.34
2022-08-25T11:29:05.994Z,29.40
2022-08-25T11:30:14.195Z,29.57
2022-08-25T11:31:16.954Z,29.69
2022-08-25T11:32:19.569Z,29.82
2022-08-25T11:33:24.296Z,29.94
2022-08-25T11:34:27.720Z,30.04
2022-08-25T11:35:42.345Z,30.10
2022-08-25T11:36:50.869Z,30.12
2022-08-25T11:38:10.667Z,30.10
2022-08-25T11:39:34.486Z,30.17
2022-08-25T11:40:55.096Z,30.24
2022-08-25T11:42:18.646Z,30.22
2022-08-25T11:43:40.546Z,30.20
2022-08-25T11:44:53.310Z,30.25
2022-08-25T11:46:07.697Z,30.13
2022-08-25T11:47:23.751Z,30.10
2022-08-25T11:48:34.506Z,30.12
2022-08-25T11:49:36.025Z,30.12
2022-08-25T11:50:56.787Z,30.21
2022-08-25T11:52:03.119Z,30.31
2022-08-25T11:53:11.327Z,30.33
2022-08-25T11:54:21.973Z,30.29
2022-08-25T11:55:29.050Z,30.27
2022-08-25T11:56:34.713Z,30.24
2022-08-25T11:57:36.721Z,30.20
2022-08-25T11:58:46.566Z,30.22
2022-08-25T11:59:51.093Z,30.34
2022-08-25T12:00:53.015Z,30.43
2022-08-25T12:01:54.375Z,30.44
2022-08-25T12:03:00.847Z,30.52
2022-08-25T12:04:30.855Z,30.53
2022-08-25T12:05:52.762Z,30.39
2022-08-25T12:07:06.192Z,30.33
2022-08-25T12:08:08.501Z,30.41
2022-08-25T12:09:10.762Z,30.30
2022-08-25T12:10:13.994Z,30.17
2022-08-25T12:11:35.319Z,30.23
2022-08-25T12:12:42.556Z,30.28
2022-08-25T12:13:45.816Z,30.27
2022-08-25T12:14:47.494Z,30.39
2022-08-25T12:15:49.675Z,30.43
2022-08-25T12:16:52.381Z,30.46
2022-08-25T12:18:09.294Z,30.47
2022-08-25T12:19:29.503Z,30.42
2022-08-25T12:21:03.354Z,30.50
2022-08-25T12:22:04.796Z,30.36
2022-08-25T12:23:06.789Z,30.35
2022-08-25T12:24:10.761Z,30.42
2022-08-25T12:25:18.391Z,30.48
2022-08-25T12:26:19.826Z,30.52
2022-08-25T12:27:39.809Z,30.53
2022-08-25T12:29:10.629Z,30.55
2022-08-25T12:30:27.945Z,30.47
2022-08-25T12:31:41.050Z,30.38
2022-08-25T12:33:01.245Z,30.26
2022-08-25T12:34:14.282Z,30.18
2022-08-25T12:35:15.620Z,30.07
2022-08-25T12:36:29.283Z,30.00
2022-08-25T12:37:30.774Z,30.02
2022-08-25T12:38:52.362Z,30.00
2022-08-25T12:39:59.719Z,30.02
2022-08-25T12:41:07.560Z,30.18
2022-08-25T12:42:24.706Z,30.36
2022-08-25T12:43:37.285Z,30.51
2022-08-25T12:44:46.454Z,30.66
2022-08-25T12:45:50.366Z,30.68
2022-08-25T12:47:10.869Z,30.62
2022-08-25T12:48:27.627Z,30.59
2022-08-25T12:49:33.913Z,30.41
2022-08-25T12:50:44.981Z,30.37
2022-08-25T12:51:50.718Z,30.28
2022-08-25T12:52:53.205Z,30.25
2022-08-25T12:54:00.778Z,30.24
2022-08-25T12:55:04.262Z,30.17
2022-08-25T12:56:07.645Z,30.12
2022-08-25T12:57:15.165Z,30.07
2022-08-25T12:58:16.613Z,30.01
2022-08-25T12:59:39.610Z,29.91
2022-08-25T13:01:06.758Z,29.83
2022-08-25T13:02:19.682Z,29.80
2022-08-25T13:03:30.935Z,29.80
2022-08-25T13:04:58.285Z,29.90
2022-08-25T13:06:14.958Z,30.04
2022-08-25T13:07:28.747Z,30.06
2022-08-25T13:08:47.060Z,30.10
2022-08-25T13:09:49.482Z,30.13
2022-08-25T13:10:52.613Z,30.16
2022-08-25T13:12:05.891Z,30.28
2022-08-25T13:13:19.267Z,30.33
2022-08-25T13:14:38.395Z,30.34
2022-08-25T13:15:44.461Z,30.50
2022-08-25T13:16:55.792Z,30.51
2022-08-25T13:18:12.318Z,30.54
2022-08-25T13:19:18.256Z,30.64
2022-08-25T13:20:24.118Z,30.72
2022-08-25T13:21:28.518Z,30.80
2022-08-25T13:22:31.079Z,30.79
2022-08-25T13:23:35.936Z,30.84
2022-08-25T13:24:41.283Z,30.81
2022-08-25T13:25:47.641Z,30.77
2022-08-25T13:26:52.564Z,30.75
2022-08-25T13:27:58.753Z,30.81
2022-08-25T13:29:03.560Z,30.95
2022-08-25T13:30:19.370Z,31.00
2022-08-25T13:31:21.512Z,31.01
2022-08-25T13:32:32.295Z,30.92
2022-08-25T13:33:36.944Z,30.91
2022-08-25T13:34:42.665Z,30.97
2022-08-25T13:35:48.201Z,30.99
2022-08-25T13:36:54.082Z,30.95
2022-08-25T13:38:12.599Z,30.84
2022-08-25T13:39:15.903Z,30.83
2022-08-25T13:40:27.574Z,30.77
2022-08-25T13:41:29.970Z,30.77
2022-08-25T13:42:35.798Z,30.73
2022-08-25T13:43:38.284Z,30.76
2022-08-25T13:44:40.438Z,30.73
2022-08-25T13:45:53.250Z,30.70
2022-08-25T13:47:14.925Z,30.61
2022-08-25T13:48:31.719Z,30.69
2022-08-25T13:49:33.155Z,30.84
2022-08-25T13:50:36.173Z,30.98
2022-08-25T13:51:39.331Z,31.13
2022-08-25T13:52:40.812Z,31.27
2022-08-25T13:54:04.870Z,31.25
2022-08-25T13:55:06.519Z,31.05
2022-08-25T13:56:11.411Z,30.94
2022-08-25T13:57:23.693Z,31.00
2022-08-25T13:58:39.431Z,30.86